sensor_id;sensor_type;location;lat;lon;timestamp;temperature;humidity
20125;DHT22;10223;50.862;4.360;2022-12-05T00:00:48;3.20;99.90
20125;DHT22;10223;50.862;4.360;2022-12-05T00:03:16;3.10;99.90
20125;DHT22;10223;50.862;4.360;2022-12-05T00:05:43;3.00;99.90
20125;DHT22;10223;50.862;4.360;2022-12-05T00:08:10;3.10;99.90
20125;DHT22;10223;50.862;4.360;2022-12-05T00:10:37;2.90;99.90
20125;DHT22;10223;50.862;4.360;2022-12-05T00:13:05;3.00;99.90
20125;DHT22;10223;50.862;4.360;2022-12-05T00:15:35;3.00;99.90
20125;DHT22;10223;50.862;4.360;2022-12-05T00:18:03;3.00;99.90
20125;DHT22;10223;50.862;4.360;2022-12-05T00:20:31;3.00;99.90
20125;DHT22;10223;50.862;4.360;2022-12-05T00:22:59;2.90;99.90
20125;DHT22;10223;50.862;4.360;2022-12-05T00:25:26;3.20;99.90
20125;DHT22;10223;50.862;4.360;2022-12-05T00:27:53;3.20;99.90
20125;DHT22;10223;50.862;4.360;2022-12-05T00:30:20;3.10;99.90
20125;DHT22;10223;50.862;4.360;2022-12-05T00:32:47;3.10;99.90
20125;DHT22;10223;50.862;4.360;2022-12-05T00:35:14;3.20;99.90
20125;DHT22;10223;50.862;4.360;2022-12-05T00:37:42;3.10;99.90
20125;DHT22;10223;50.862;4.360;2022-12-05T00:40:09;3.00;99.90
20125;DHT22;10223;50.862;4.360;2022-12-05T00:42:36;3.00;99.90
20125;DHT22;10223;50.862;4.360;2022-12-05T00:45:04;3.00;99.90
20125;DHT22;10223;50.862;4.360;2022-12-05T00:47:33;3.00;99.90
20125;DHT22;10223;50.862;4.360;2022-12-05T00:50:00;3.00;99.90
20125;DHT22;10223;50.862;4.360;2022-12-05T00:52:27;3.10;99.90
20125;DHT22;10223;50.862;4.360;2022-12-05T00:54:56;3.00;99.90
20125;DHT22;10223;50.862;4.360;2022-12-05T00:57:22;3.00;99.90
20125;DHT22;10223;50.862;4.360;2022-12-05T00:59:49;3.00;99.90
20125;DHT22;10223;50.862;4.360;2022-12-05T01:02:16;3.00;99.90
20125;DHT22;10223;50.862;4.360;2022-12-05T01:04:43;3.10;99.90
20125;DHT22;10223;50.862;4.360;2022-12-05T01:07:10;3.10;99.90
20125;DHT22;10223;50.862;4.360;2022-12-05T01:09:37;2.90;99.90
20125;DHT22;10223;50.862;4.360;2022-12-05T01:12:06;3.00;99.90
20125;DHT22;10223;50.862;4.360;2022-12-05T01:14:33;3.10;99.90
20125;DHT22;10223;50.862;4.360;2022-12-05T01:17:00;3.10;99.90
20125;DHT22;10223;50.862;4.360;2022-12-05T01:19:29;3.10;99.90
20125;DHT22;10223;50.862;4.360;2022-12-05T01:21:57;3.10;99.90
20125;DHT22;10223;50.862;4.360;2022-12-05T01:24:25;3.10;99.90
20125;DHT22;10223;50.862;4.360;2022-12-05T01:26:54;3.00;99.90
20125;DHT22;10223;50.862;4.360;2022-12-05T01:29:24;3.00;99.90
20125;DHT22;10223;50.862;4.360;2022-12-05T01:31:51;2.90;99.90
20125;DHT22;10223;50.862;4.360;2022-12-05T01:34:18;2.80;99.90
20125;DHT22;10223;50.862;4.360;2022-12-05T01:36:45;2.80;99.90
20125;DHT22;10223;50.862;4.360;2022-12-05T01:39:13;2.80;99.90
20125;DHT22;10223;50.862;4.360;2022-12-05T01:41:42;2.90;99.90
20125;DHT22;10223;50.862;4.360;2022-12-05T01:47:15;2.90;99.90
20125;DHT22;10223;50.862;4.360;2022-12-05T01:49:43;2.90;99.90
20125;DHT22;10223;50.862;4.360;2022-12-05T01:52:13;3.00;99.90
20125;DHT22;10223;50.862;4.360;2022-12-05T01:54:43;2.90;99.90
20125;DHT22;10223;50.862;4.360;2022-12-05T01:57:13;3.00;99.90
20125;DHT22;10223;50.862;4.360;2022-12-05T01:59:43;3.00;99.90
20125;DHT22;10223;50.862;4.360;2022-12-05T02:02:12;3.00;99.90
20125;DHT22;10223;50.862;4.360;2022-12-05T02:04:44;3.20;99.90
20125;DHT22;10223;50.862;4.360;2022-12-05T02:07:14;3.10;99.90
20125;DHT22;10223;50.862;4.360;2022-12-05T02:09:41;3.10;99.90
20125;DHT22;10223;50.862;4.360;2022-12-05T02:12:08;3.30;99.90
20125;DHT22;10223;50.862;4.360;2022-12-05T02:14:42;3.10;99.90
20125;DHT22;10223;50.862;4.360;2022-12-05T02:17:18;3.20;99.90
20125;DHT22;10223;50.862;4.360;2022-12-05T02:20:06;3.00;99.90
20125;DHT22;10223;50.862;4.360;2022-12-05T02:23:01;3.10;99.90
20125;DHT22;10223;50.862;4.360;2022-12-05T02:26:02;3.20;99.90
20125;DHT22;10223;50.862;4.360;2022-12-05T02:28:45;3.10;99.90
20125;DHT22;10223;50.862;4.360;2022-12-05T02:31:25;3.10;99.90
20125;DHT22;10223;50.862;4.360;2022-12-05T02:34:01;3.10;99.90
20125;DHT22;10223;50.862;4.360;2022-12-05T02:36:35;3.10;99.90
20125;DHT22;10223;50.862;4.360;2022-12-05T02:39:11;3.20;99.90
20125;DHT22;10223;50.862;4.360;2022-12-05T02:41:47;3.20;99.90
20125;DHT22;10223;50.862;4.360;2022-12-05T02:44:17;3.30;99.90
20125;DHT22;10223;50.862;4.360;2022-12-05T02:46:49;3.30;99.90
20125;DHT22;10223;50.862;4.360;2022-12-05T02:49:21;3.40;99.90
20125;DHT22;10223;50.862;4.360;2022-12-05T02:51:52;3.30;99.90
20125;DHT22;10223;50.862;4.360;2022-12-05T02:54:23;3.30;99.90
20125;DHT22;10223;50.862;4.360;2022-12-05T02:56:52;3.30;99.90
20125;DHT22;10223;50.862;4.360;2022-12-05T02:59:20;3.30;99.90
20125;DHT22;10223;50.862;4.360;2022-12-05T03:01:48;3.30;99.90
20125;DHT22;10223;50.862;4.360;2022-12-05T03:04:16;3.20;99.90
20125;DHT22;10223;50.862;4.360;2022-12-05T03:06:47;3.20;99.90
20125;DHT22;10223;50.862;4.360;2022-12-05T03:09:19;3.00;99.90
20125;DHT22;10223;50.862;4.360;2022-12-05T03:11:50;3.00;99.90
20125;DHT22;10223;50.862;4.360;2022-12-05T03:14:21;3.00;99.90
20125;DHT22;10223;50.862;4.360;2022-12-05T03:16:51;3.10;99.90
20125;DHT22;10223;50.862;4.360;2022-12-05T03:19:22;3.10;99.90
20125;DHT22;10223;50.862;4.360;2022-12-05T03:21:52;3.10;99.90
20125;DHT22;10223;50.862;4.360;2022-12-05T03:24:22;3.00;99.90
20125;DHT22;10223;50.862;4.360;2022-12-05T03:26:56;3.10;99.90
20125;DHT22;10223;50.862;4.360;2022-12-05T03:29:30;3.20;99.90
20125;DHT22;10223;50.862;4.360;2022-12-05T03:32:07;3.10;99.90
20125;DHT22;10223;50.862;4.360;2022-12-05T03:34:43;3.10;99.90
20125;DHT22;10223;50.862;4.360;2022-12-05T03:37:16;3.10;99.90
20125;DHT22;10223;50.862;4.360;2022-12-05T03:39:52;3.10;99.90
20125;DHT22;10223;50.862;4.360;2022-12-05T03:42:27;3.20;99.90
20125;DHT22;10223;50.862;4.360;2022-12-05T03:44:59;3.00;99.90
20125;DHT22;10223;50.862;4.360;2022-12-05T03:47:35;3.20;99.90
20125;DHT22;10223;50.862;4.360;2022-12-05T03:50:08;3.10;99.90
20125;DHT22;10223;50.862;4.360;2022-12-05T03:52:41;3.20;99.90
20125;DHT22;10223;50.862;4.360;2022-12-05T03:55:11;3.20;99.90
20125;DHT22;10223;50.862;4.360;2022-12-05T03:57:42;3.10;99.90
20125;DHT22;10223;50.862;4.360;2022-12-05T04:00:14;3.10;99.90
20125;DHT22;10223;50.862;4.360;2022-12-05T04:02:48;3.10;99.90
20125;DHT22;10223;50.862;4.360;2022-12-05T04:05:19;3.00;99.90
20125;DHT22;10223;50.862;4.360;2022-12-05T04:07:51;3.10;99.90
20125;DHT22;10223;50.862;4.360;2022-12-05T04:10:24;3.10;99.90
20125;DHT22;10223;50.862;4.360;2022-12-05T04:12:53;3.10;99.90
20125;DHT22;10223;50.862;4.360;2022-12-05T04:15:24;3.00;99.90
20125;DHT22;10223;50.862;4.360;2022-12-05T04:17:56;3.10;99.90
20125;DHT22;10223;50.862;4.360;2022-12-05T04:20:26;3.10;99.90
20125;DHT22;10223;50.862;4.360;2022-12-05T04:23:13;3.00;99.90
20125;DHT22;10223;50.862;4.360;2022-12-05T04:26:02;3.10;99.90
20125;DHT22;10223;50.862;4.360;2022-12-05T04:28:35;3.00;99.90
20125;DHT22;10223;50.862;4.360;2022-12-05T04:31:06;3.00;99.90
20125;DHT22;10223;50.862;4.360;2022-12-05T04:33:41;3.00;99.90
20125;DHT22;10223;50.862;4.360;2022-12-05T04:36:12;2.90;99.90
20125;DHT22;10223;50.862;4.360;2022-12-05T04:38:44;2.90;99.90
20125;DHT22;10223;50.862;4.360;2022-12-05T04:41:16;3.00;99.90
20125;DHT22;10223;50.862;4.360;2022-12-05T04:43:46;3.00;99.90
20125;DHT22;10223;50.862;4.360;2022-12-05T04:46:15;2.80;99.90
20125;DHT22;10223;50.862;4.360;2022-12-05T04:48:47;2.80;99.90
20125;DHT22;10223;50.862;4.360;2022-12-05T04:51:17;3.00;99.90
20125;DHT22;10223;50.862;4.360;2022-12-05T04:53:48;3.00;99.90
20125;DHT22;10223;50.862;4.360;2022-12-05T04:56:18;3.00;99.90
20125;DHT22;10223;50.862;4.360;2022-12-05T04:58:46;3.00;99.90
20125;DHT22;10223;50.862;4.360;2022-12-05T05:01:17;3.00;99.90
20125;DHT22;10223;50.862;4.360;2022-12-05T05:03:50;2.90;99.90
20125;DHT22;10223;50.862;4.360;2022-12-05T05:06:18;3.00;99.90
20125;DHT22;10223;50.862;4.360;2022-12-05T05:08:47;3.00;99.90
20125;DHT22;10223;50.862;4.360;2022-12-05T05:11:16;3.00;99.90
20125;DHT22;10223;50.862;4.360;2022-12-05T05:13:44;3.10;99.90
20125;DHT22;10223;50.862;4.360;2022-12-05T05:16:13;3.10;99.90
20125;DHT22;10223;50.862;4.360;2022-12-05T05:18:43;3.20;99.90
20125;DHT22;10223;50.862;4.360;2022-12-05T05:21:16;3.30;99.90
20125;DHT22;10223;50.862;4.360;2022-12-05T05:23:44;3.20;99.90
20125;DHT22;10223;50.862;4.360;2022-12-05T05:26:11;3.20;99.90
20125;DHT22;10223;50.862;4.360;2022-12-05T05:28:38;3.30;99.90
20125;DHT22;10223;50.862;4.360;2022-12-05T05:31:05;3.40;99.90
20125;DHT22;10223;50.862;4.360;2022-12-05T05:33:33;3.40;99.90
20125;DHT22;10223;50.862;4.360;2022-12-05T05:36:02;3.40;99.90
20125;DHT22;10223;50.862;4.360;2022-12-05T05:38:34;3.50;99.90
20125;DHT22;10223;50.862;4.360;2022-12-05T05:41:01;3.50;99.90
20125;DHT22;10223;50.862;4.360;2022-12-05T05:43:28;3.50;99.90
20125;DHT22;10223;50.862;4.360;2022-12-05T05:45:55;3.60;99.90
20125;DHT22;10223;50.862;4.360;2022-12-05T05:48:22;3.50;99.90
20125;DHT22;10223;50.862;4.360;2022-12-05T05:50:49;3.60;99.90
20125;DHT22;10223;50.862;4.360;2022-12-05T05:53:16;3.60;99.90
20125;DHT22;10223;50.862;4.360;2022-12-05T05:55:44;3.80;99.90
20125;DHT22;10223;50.862;4.360;2022-12-05T05:58:11;3.80;99.90
20125;DHT22;10223;50.862;4.360;2022-12-05T06:00:38;3.90;99.90
20125;DHT22;10223;50.862;4.360;2022-12-05T06:03:05;3.90;99.90
20125;DHT22;10223;50.862;4.360;2022-12-05T06:05:32;4.00;99.90
20125;DHT22;10223;50.862;4.360;2022-12-05T06:07:59;4.00;99.90
20125;DHT22;10223;50.862;4.360;2022-12-05T06:10:26;4.00;99.90
20125;DHT22;10223;50.862;4.360;2022-12-05T06:12:56;4.00;99.90
20125;DHT22;10223;50.862;4.360;2022-12-05T06:15:23;3.80;99.90
20125;DHT22;10223;50.862;4.360;2022-12-05T06:17:50;3.80;99.90
20125;DHT22;10223;50.862;4.360;2022-12-05T06:20:17;3.70;99.90
20125;DHT22;10223;50.862;4.360;2022-12-05T06:22:44;3.70;99.90
20125;DHT22;10223;50.862;4.360;2022-12-05T06:25:11;3.70;99.90
20125;DHT22;10223;50.862;4.360;2022-12-05T06:27:38;3.60;99.90
20125;DHT22;10223;50.862;4.360;2022-12-05T06:30:08;3.60;99.90
20125;DHT22;10223;50.862;4.360;2022-12-05T06:32:35;3.70;99.90
20125;DHT22;10223;50.862;4.360;2022-12-05T06:35:02;3.70;99.90
20125;DHT22;10223;50.862;4.360;2022-12-05T06:37:39;3.80;99.90
20125;DHT22;10223;50.862;4.360;2022-12-05T06:40:07;3.90;99.90
20125;DHT22;10223;50.862;4.360;2022-12-05T06:42:34;4.00;99.90
20125;DHT22;10223;50.862;4.360;2022-12-05T06:45:04;4.10;99.90
20125;DHT22;10223;50.862;4.360;2022-12-05T06:47:33;3.80;99.90
20125;DHT22;10223;50.862;4.360;2022-12-05T06:50:00;4.00;99.90
20125;DHT22;10223;50.862;4.360;2022-12-05T06:52:27;3.90;99.90
20125;DHT22;10223;50.862;4.360;2022-12-05T06:54:54;3.90;99.90
20125;DHT22;10223;50.862;4.360;2022-12-05T06:57:21;4.00;99.90
20125;DHT22;10223;50.862;4.360;2022-12-05T06:59:48;4.10;99.90
20125;DHT22;10223;50.862;4.360;2022-12-05T07:02:15;4.10;99.90
20125;DHT22;10223;50.862;4.360;2022-12-05T07:04:42;3.90;99.90
20125;DHT22;10223;50.862;4.360;2022-12-05T07:07:09;3.80;99.90
20125;DHT22;10223;50.862;4.360;2022-12-05T07:09:37;3.90;99.90
20125;DHT22;10223;50.862;4.360;2022-12-05T07:12:18;3.80;99.90
20125;DHT22;10223;50.862;4.360;2022-12-05T07:14:45;4.00;99.90
20125;DHT22;10223;50.862;4.360;2022-12-05T07:17:12;4.00;99.90
20125;DHT22;10223;50.862;4.360;2022-12-05T07:19:39;4.00;99.90
20125;DHT22;10223;50.862;4.360;2022-12-05T07:22:07;3.90;99.90
20125;DHT22;10223;50.862;4.360;2022-12-05T07:24:34;4.00;99.90
20125;DHT22;10223;50.862;4.360;2022-12-05T07:27:01;4.10;99.90
20125;DHT22;10223;50.862;4.360;2022-12-05T07:29:28;4.20;99.90
20125;DHT22;10223;50.862;4.360;2022-12-05T07:31:55;4.30;99.90
20125;DHT22;10223;50.862;4.360;2022-12-05T07:34:22;4.30;99.90
20125;DHT22;10223;50.862;4.360;2022-12-05T07:36:49;4.30;99.90
20125;DHT22;10223;50.862;4.360;2022-12-05T07:39:17;4.30;99.90
20125;DHT22;10223;50.862;4.360;2022-12-05T07:41:44;4.50;99.90
20125;DHT22;10223;50.862;4.360;2022-12-05T07:44:11;4.40;99.90
20125;DHT22;10223;50.862;4.360;2022-12-05T07:46:39;4.20;99.90
20125;DHT22;10223;50.862;4.360;2022-12-05T07:49:06;4.30;99.90
20125;DHT22;10223;50.862;4.360;2022-12-05T07:51:33;4.30;99.90
20125;DHT22;10223;50.862;4.360;2022-12-05T07:54:01;4.20;99.90
20125;DHT22;10223;50.862;4.360;2022-12-05T07:56:29;4.10;99.90
20125;DHT22;10223;50.862;4.360;2022-12-05T07:58:56;4.20;99.90
20125;DHT22;10223;50.862;4.360;2022-12-05T08:01:25;4.30;99.90
20125;DHT22;10223;50.862;4.360;2022-12-05T08:03:53;4.40;99.90
20125;DHT22;10223;50.862;4.360;2022-12-05T08:06:22;4.40;99.90
20125;DHT22;10223;50.862;4.360;2022-12-05T08:08:50;4.40;99.90
20125;DHT22;10223;50.862;4.360;2022-12-05T08:11:19;4.40;99.90
20125;DHT22;10223;50.862;4.360;2022-12-05T08:13:48;4.50;99.90
20125;DHT22;10223;50.862;4.360;2022-12-05T08:16:17;4.50;99.90
20125;DHT22;10223;50.862;4.360;2022-12-05T08:18:45;4.30;99.90
20125;DHT22;10223;50.862;4.360;2022-12-05T08:21:14;4.30;99.90
20125;DHT22;10223;50.862;4.360;2022-12-05T08:23:42;4.20;99.90
20125;DHT22;10223;50.862;4.360;2022-12-05T08:26:11;4.10;99.90
20125;DHT22;10223;50.862;4.360;2022-12-05T08:28:39;4.30;99.90
20125;DHT22;10223;50.862;4.360;2022-12-05T08:31:08;4.30;99.90
20125;DHT22;10223;50.862;4.360;2022-12-05T08:33:36;4.50;99.90
20125;DHT22;10223;50.862;4.360;2022-12-05T08:36:05;4.40;99.90
20125;DHT22;10223;50.862;4.360;2022-12-05T08:38:33;4.30;99.90
20125;DHT22;10223;50.862;4.360;2022-12-05T08:41:00;4.40;99.90
20125;DHT22;10223;50.862;4.360;2022-12-05T08:43:28;4.50;99.90
20125;DHT22;10223;50.862;4.360;2022-12-05T08:45:56;4.60;99.90
20125;DHT22;10223;50.862;4.360;2022-12-05T08:48:25;4.70;99.90
20125;DHT22;10223;50.862;4.360;2022-12-05T08:50:52;4.50;99.90
20125;DHT22;10223;50.862;4.360;2022-12-05T08:53:19;4.50;99.90
20125;DHT22;10223;50.862;4.360;2022-12-05T08:55:46;4.30;99.90
20125;DHT22;10223;50.862;4.360;2022-12-05T08:58:13;4.30;99.90
20125;DHT22;10223;50.862;4.360;2022-12-05T09:00:40;4.50;99.90
20125;DHT22;10223;50.862;4.360;2022-12-05T09:03:09;4.40;99.90
20125;DHT22;10223;50.862;4.360;2022-12-05T09:05:38;4.40;99.90
20125;DHT22;10223;50.862;4.360;2022-12-05T09:08:05;4.40;99.90
20125;DHT22;10223;50.862;4.360;2022-12-05T09:10:32;4.30;99.90
20125;DHT22;10223;50.862;4.360;2022-12-05T09:12:59;4.30;99.90
20125;DHT22;10223;50.862;4.360;2022-12-05T09:15:26;4.30;99.90
20125;DHT22;10223;50.862;4.360;2022-12-05T09:17:53;4.30;99.90
20125;DHT22;10223;50.862;4.360;2022-12-05T09:20:20;4.20;99.90
20125;DHT22;10223;50.862;4.360;2022-12-05T09:22:48;4.10;99.90
20125;DHT22;10223;50.862;4.360;2022-12-05T09:25:17;4.20;99.90
20125;DHT22;10223;50.862;4.360;2022-12-05T09:27:44;4.20;99.90
20125;DHT22;10223;50.862;4.360;2022-12-05T09:30:12;4.30;99.90
20125;DHT22;10223;50.862;4.360;2022-12-05T09:32:39;4.30;99.90
20125;DHT22;10223;50.862;4.360;2022-12-05T09:35:07;4.30;99.90
20125;DHT22;10223;50.862;4.360;2022-12-05T09:37:34;4.30;99.90
20125;DHT22;10223;50.862;4.360;2022-12-05T09:40:03;4.30;99.90
20125;DHT22;10223;50.862;4.360;2022-12-05T09:42:38;4.40;99.90
20125;DHT22;10223;50.862;4.360;2022-12-05T09:45:23;4.30;99.90
20125;DHT22;10223;50.862;4.360;2022-12-05T09:48:06;4.40;99.90
20125;DHT22;10223;50.862;4.360;2022-12-05T09:50:43;4.40;99.90
20125;DHT22;10223;50.862;4.360;2022-12-05T09:53:16;4.50;99.90
20125;DHT22;10223;50.862;4.360;2022-12-05T09:55:52;4.50;99.90
20125;DHT22;10223;50.862;4.360;2022-12-05T09:58:24;4.60;99.90
20125;DHT22;10223;50.862;4.360;2022-12-05T10:00:56;4.30;99.90
20125;DHT22;10223;50.862;4.360;2022-12-05T10:03:29;4.30;99.90
20125;DHT22;10223;50.862;4.360;2022-12-05T10:06:09;4.20;99.90
20125;DHT22;10223;50.862;4.360;2022-12-05T10:08:51;4.20;99.90
20125;DHT22;10223;50.862;4.360;2022-12-05T10:11:27;4.40;99.90
20125;DHT22;10223;50.862;4.360;2022-12-05T10:14:01;4.50;99.90
20125;DHT22;10223;50.862;4.360;2022-12-05T10:16:33;4.50;99.90
20125;DHT22;10223;50.862;4.360;2022-12-05T10:19:05;4.40;99.90
20125;DHT22;10223;50.862;4.360;2022-12-05T10:21:44;4.50;99.90
20125;DHT22;10223;50.862;4.360;2022-12-05T10:24:16;4.50;99.90
20125;DHT22;10223;50.862;4.360;2022-12-05T10:26:48;4.40;99.90
20125;DHT22;10223;50.862;4.360;2022-12-05T10:29:22;4.50;99.90
20125;DHT22;10223;50.862;4.360;2022-12-05T10:31:54;4.60;99.90
20125;DHT22;10223;50.862;4.360;2022-12-05T10:34:28;4.50;99.90
20125;DHT22;10223;50.862;4.360;2022-12-05T10:36:59;4.50;99.90
20125;DHT22;10223;50.862;4.360;2022-12-05T10:39:28;4.50;99.90
20125;DHT22;10223;50.862;4.360;2022-12-05T10:41:56;4.60;99.90
20125;DHT22;10223;50.862;4.360;2022-12-05T10:44:23;4.60;99.90
20125;DHT22;10223;50.862;4.360;2022-12-05T10:46:50;4.60;99.90
20125;DHT22;10223;50.862;4.360;2022-12-05T10:49:17;4.50;99.90
20125;DHT22;10223;50.862;4.360;2022-12-05T10:51:45;4.40;99.90
20125;DHT22;10223;50.862;4.360;2022-12-05T10:54:16;4.30;99.90
20125;DHT22;10223;50.862;4.360;2022-12-05T10:56:45;4.30;99.90
20125;DHT22;10223;50.862;4.360;2022-12-05T10:59:15;4.30;99.90
20125;DHT22;10223;50.862;4.360;2022-12-05T11:01:46;4.50;99.90
20125;DHT22;10223;50.862;4.360;2022-12-05T11:04:22;4.50;99.90
20125;DHT22;10223;50.862;4.360;2022-12-05T11:06:52;4.70;99.90
20125;DHT22;10223;50.862;4.360;2022-12-05T11:09:21;4.70;99.90
20125;DHT22;10223;50.862;4.360;2022-12-05T11:12:16;4.70;99.90
20125;DHT22;10223;50.862;4.360;2022-12-05T11:14:56;4.70;99.90
20125;DHT22;10223;50.862;4.360;2022-12-05T11:17:28;4.70;99.90
20125;DHT22;10223;50.862;4.360;2022-12-05T11:19:55;4.60;99.90
20125;DHT22;10223;50.862;4.360;2022-12-05T11:22:30;4.70;99.90
20125;DHT22;10223;50.862;4.360;2022-12-05T11:24:57;4.80;99.90
20125;DHT22;10223;50.862;4.360;2022-12-05T11:27:27;4.90;99.90
20125;DHT22;10223;50.862;4.360;2022-12-05T11:29:59;4.80;99.90
20125;DHT22;10223;50.862;4.360;2022-12-05T11:32:29;4.80;99.90
20125;DHT22;10223;50.862;4.360;2022-12-05T11:35:03;4.80;99.90
20125;DHT22;10223;50.862;4.360;2022-12-05T11:37:36;4.80;99.90
20125;DHT22;10223;50.862;4.360;2022-12-05T11:40:13;4.70;99.90
20125;DHT22;10223;50.862;4.360;2022-12-05T11:43:05;4.50;99.90
20125;DHT22;10223;50.862;4.360;2022-12-05T11:45:58;4.50;99.90
20125;DHT22;10223;50.862;4.360;2022-12-05T11:48:45;4.40;99.90
20125;DHT22;10223;50.862;4.360;2022-12-05T11:51:30;4.40;99.90
20125;DHT22;10223;50.862;4.360;2022-12-05T11:54:25;4.50;99.90
20125;DHT22;10223;50.862;4.360;2022-12-05T11:56:58;4.30;99.90
20125;DHT22;10223;50.862;4.360;2022-12-05T11:59:39;4.20;99.90
20125;DHT22;10223;50.862;4.360;2022-12-05T12:02:23;4.10;99.90
20125;DHT22;10223;50.862;4.360;2022-12-05T12:04:57;4.40;99.90
20125;DHT22;10223;50.862;4.360;2022-12-05T12:07:48;4.30;99.90
20125;DHT22;10223;50.862;4.360;2022-12-05T12:10:25;4.40;99.90
20125;DHT22;10223;50.862;4.360;2022-12-05T12:13:07;4.50;99.90
20125;DHT22;10223;50.862;4.360;2022-12-05T12:15:49;4.60;99.90
20125;DHT22;10223;50.862;4.360;2022-12-05T12:18:31;4.50;99.90
20125;DHT22;10223;50.862;4.360;2022-12-05T12:21:08;4.50;99.90
20125;DHT22;10223;50.862;4.360;2022-12-05T12:23:56;4.50;99.90
20125;DHT22;10223;50.862;4.360;2022-12-05T12:26:36;4.60;99.90
20125;DHT22;10223;50.862;4.360;2022-12-05T12:29:11;4.70;99.90
20125;DHT22;10223;50.862;4.360;2022-12-05T12:31:55;4.70;99.90
20125;DHT22;10223;50.862;4.360;2022-12-05T12:34:53;4.80;99.90
20125;DHT22;10223;50.862;4.360;2022-12-05T12:37:31;4.80;99.90
20125;DHT22;10223;50.862;4.360;2022-12-05T12:40:03;4.80;99.90
20125;DHT22;10223;50.862;4.360;2022-12-05T12:42:45;5.00;99.90
20125;DHT22;10223;50.862;4.360;2022-12-05T12:45:31;5.00;99.90
20125;DHT22;10223;50.862;4.360;2022-12-05T12:48:16;4.90;99.90
20125;DHT22;10223;50.862;4.360;2022-12-05T12:50:50;5.00;99.90
20125;DHT22;10223;50.862;4.360;2022-12-05T12:53:46;5.00;99.90
20125;DHT22;10223;50.862;4.360;2022-12-05T12:56:28;4.70;99.90
20125;DHT22;10223;50.862;4.360;2022-12-05T12:59:12;4.90;99.90
20125;DHT22;10223;50.862;4.360;2022-12-05T13:01:44;4.80;99.90
20125;DHT22;10223;50.862;4.360;2022-12-05T13:04:16;4.90;99.90
20125;DHT22;10223;50.862;4.360;2022-12-05T13:06:48;4.80;99.90
20125;DHT22;10223;50.862;4.360;2022-12-05T13:09:21;4.90;99.90
20125;DHT22;10223;50.862;4.360;2022-12-05T13:11:51;4.70;99.90
20125;DHT22;10223;50.862;4.360;2022-12-05T13:14:22;4.70;99.90
20125;DHT22;10223;50.862;4.360;2022-12-05T13:16:52;4.60;99.90
20125;DHT22;10223;50.862;4.360;2022-12-05T13:19:27;4.80;99.90
20125;DHT22;10223;50.862;4.360;2022-12-05T13:21:57;4.70;99.90
20125;DHT22;10223;50.862;4.360;2022-12-05T13:24:26;4.70;99.90
20125;DHT22;10223;50.862;4.360;2022-12-05T13:26:58;4.70;99.90
20125;DHT22;10223;50.862;4.360;2022-12-05T13:29:30;4.80;99.90
20125;DHT22;10223;50.862;4.360;2022-12-05T13:31:59;5.00;99.90
20125;DHT22;10223;50.862;4.360;2022-12-05T13:34:42;5.30;99.90
20125;DHT22;10223;50.862;4.360;2022-12-05T13:37:20;5.00;99.90
20125;DHT22;10223;50.862;4.360;2022-12-05T13:40:20;5.00;99.90
20125;DHT22;10223;50.862;4.360;2022-12-05T13:43:05;4.90;99.90
20125;DHT22;10223;50.862;4.360;2022-12-05T13:45:32;4.90;99.90
20125;DHT22;10223;50.862;4.360;2022-12-05T13:48:12;4.90;99.90
20125;DHT22;10223;50.862;4.360;2022-12-05T13:50:44;5.10;99.90
20125;DHT22;10223;50.862;4.360;2022-12-05T13:53:26;5.00;99.90
20125;DHT22;10223;50.862;4.360;2022-12-05T13:55:57;5.00;99.90
20125;DHT22;10223;50.862;4.360;2022-12-05T13:58:42;5.10;99.90
20125;DHT22;10223;50.862;4.360;2022-12-05T14:01:43;4.90;99.90
20125;DHT22;10223;50.862;4.360;2022-12-05T14:04:44;4.90;99.90
20125;DHT22;10223;50.862;4.360;2022-12-05T14:07:37;4.90;99.90
20125;DHT22;10223;50.862;4.360;2022-12-05T14:10:09;4.90;99.90
20125;DHT22;10223;50.862;4.360;2022-12-05T14:12:47;5.00;99.90
20125;DHT22;10223;50.862;4.360;2022-12-05T14:15:32;5.10;99.90
20125;DHT22;10223;50.862;4.360;2022-12-05T14:18:07;5.20;99.90
20125;DHT22;10223;50.862;4.360;2022-12-05T14:20:59;5.20;99.90
20125;DHT22;10223;50.862;4.360;2022-12-05T14:23:52;5.20;99.90
20125;DHT22;10223;50.862;4.360;2022-12-05T14:26:33;5.30;99.90
20125;DHT22;10223;50.862;4.360;2022-12-05T14:29:27;5.30;99.90
20125;DHT22;10223;50.862;4.360;2022-12-05T14:32:04;5.20;99.90
20125;DHT22;10223;50.862;4.360;2022-12-05T14:34:48;5.20;99.90
20125;DHT22;10223;50.862;4.360;2022-12-05T14:37:25;5.10;99.90
20125;DHT22;10223;50.862;4.360;2022-12-05T14:39:55;5.30;99.90
20125;DHT22;10223;50.862;4.360;2022-12-05T14:42:41;5.30;99.90
20125;DHT22;10223;50.862;4.360;2022-12-05T14:45:30;5.20;99.90
20125;DHT22;10223;50.862;4.360;2022-12-05T14:48:01;5.20;99.90
20125;DHT22;10223;50.862;4.360;2022-12-05T14:50:39;5.10;99.90
20125;DHT22;10223;50.862;4.360;2022-12-05T14:53:31;5.10;99.90
20125;DHT22;10223;50.862;4.360;2022-12-05T14:56:17;5.00;99.90
20125;DHT22;10223;50.862;4.360;2022-12-05T14:58:52;5.20;99.90
20125;DHT22;10223;50.862;4.360;2022-12-05T15:01:26;5.00;99.90
20125;DHT22;10223;50.862;4.360;2022-12-05T15:04:07;4.90;99.90
20125;DHT22;10223;50.862;4.360;2022-12-05T15:06:43;4.90;99.90
20125;DHT22;10223;50.862;4.360;2022-12-05T15:09:37;4.80;99.90
20125;DHT22;10223;50.862;4.360;2022-12-05T15:12:12;4.90;99.90
20125;DHT22;10223;50.862;4.360;2022-12-05T15:14:47;5.10;99.90
20125;DHT22;10223;50.862;4.360;2022-12-05T15:17:20;5.10;99.90
20125;DHT22;10223;50.862;4.360;2022-12-05T15:19:54;5.10;99.90
20125;DHT22;10223;50.862;4.360;2022-12-05T15:22:25;5.00;99.90
20125;DHT22;10223;50.862;4.360;2022-12-05T15:24:53;4.90;99.90
20125;DHT22;10223;50.862;4.360;2022-12-05T15:27:21;5.20;99.90
20125;DHT22;10223;50.862;4.360;2022-12-05T15:29:52;5.40;99.90
20125;DHT22;10223;50.862;4.360;2022-12-05T15:32:24;5.40;99.90
20125;DHT22;10223;50.862;4.360;2022-12-05T15:34:55;5.50;99.90
20125;DHT22;10223;50.862;4.360;2022-12-05T15:37:28;5.60;99.90
20125;DHT22;10223;50.862;4.360;2022-12-05T15:40:00;5.60;99.90
20125;DHT22;10223;50.862;4.360;2022-12-05T15:42:35;5.80;99.90
20125;DHT22;10223;50.862;4.360;2022-12-05T15:45:17;5.80;99.90
20125;DHT22;10223;50.862;4.360;2022-12-05T15:47:53;5.60;99.90
20125;DHT22;10223;50.862;4.360;2022-12-05T15:50:26;5.70;99.90
20125;DHT22;10223;50.862;4.360;2022-12-05T15:52:56;5.70;99.90
20125;DHT22;10223;50.862;4.360;2022-12-05T15:55:28;5.80;99.90
20125;DHT22;10223;50.862;4.360;2022-12-05T15:58:01;5.70;99.90
20125;DHT22;10223;50.862;4.360;2022-12-05T16:00:34;5.60;99.90
20125;DHT22;10223;50.862;4.360;2022-12-05T16:03:05;5.60;99.90
20125;DHT22;10223;50.862;4.360;2022-12-05T16:05:36;5.60;99.90
20125;DHT22;10223;50.862;4.360;2022-12-05T16:08:05;5.70;99.90
20125;DHT22;10223;50.862;4.360;2022-12-05T16:10:33;5.40;99.90
20125;DHT22;10223;50.862;4.360;2022-12-05T16:13:10;5.60;99.90
20125;DHT22;10223;50.862;4.360;2022-12-05T16:15:41;5.60;99.90
20125;DHT22;10223;50.862;4.360;2022-12-05T16:18:23;5.70;99.90
20125;DHT22;10223;50.862;4.360;2022-12-05T16:20:51;5.80;99.90